9V9

Chamberlain Municipal Airport

Chamberlain, South Dakota, USA
METAR K9V9 260335Z AUTO 15007KT 10SM CLR 09/01 A2990 RMK AO2 T00880013
Observed Flight Rules
Apr-26 @ 03:35 UTC (12 minutes ago) Visual Flight Rules
Wind Visibility Clouds
150° at 7 knots 10 miles
  • Clear skies
Temperatures Readings
Current 9°C / 48°F
Dewpoint 1°C / 34°F
Humidity 58%
Altimeter 29.9" Hg
Pressure 1013 hPa
Elevation 519
METAR K9V9 260335Z AUTO 15007KT 10SM CLR 09/01 A2990 RMK AO2 T00880013
Observed Flight Rules
Apr-26 @ 03:35 UTC
(12 minutes ago)
VFR
Wind Visibility
150° at 7 knots 10 miles
Clouds
  • Clear skies
Temperature Dewpoint
9°C / 48°F 1°C / 34°F
Humidity Altimeter Pressure
58% 29.9" Hg 1013 hPa